Boone County Airport
KHRO : now visible

Airfield :











YOU CAN JOIN US ON...

 
LOGIN :

Register | Disclaimer

   EN    FR    IT 

 









Legend :    VFR   Marginal VFR   IFR   Intensive IFR   Very Intensive IFR
Visi :
Ceiling :
>= 8 km
>= 3000ft
5 to 8 km
1000 to 3000 ft
1500m to 5 km
500 to 1000 ft
800 to 1500m
200 to 500 ft
< 800m
< 200 ft
Symbols :   Thunderstorms  Fog  Heavy snow  Heavy precipitations  Wind > 20 kt






- Airport Elevation : 1365 ft
- IATA code : HRO


KHRO - Boone County

CURRENT METAR :
  • 250853Z AUTO 30006KT 10SM OVC022 00/M03 A3010 RMK AO2 SLP201 T00001033 53005

EXPIRED METARs :
  • 250753Z AUTO 30006KT 10SM OVC021 00/M03 A3008 RMK AO2 SLP196 T00001033
  • 250653Z AUTO 30006KT 10SM OVC017 00/M03 A3007 RMK AO2 SLP193 T00001033
  • 250553Z AUTO 31006KT 10SM OVC020 00/M03 A3008 RMK AO2 SLP195 T00001033 10006 20000 400280000 51008

TAF KHRO
Valid from the 25 at 06:00 until the 26 at 06:00 UTC


250539Z 2506/2606 30010KT P6SM BKN015 OVC025
FM250800 28005KT P6SM BKN020 OVC050
FM251500 26006KT P6SM FEW100 SCT250
FM260100 15004KT P6SM BKN100



MET'MAP, your aeronautical weather chart ! - Copyright ORBIFLY December 2007 - Disclaimer

ORBIFLY MET'MAP TEAM :

Programming & Development : Alexandra Zaïnal
Concept & original design : Baudouin d'Aumeries
Assistance for programming : Marc-Olivier Méhu
Technical & hardware support : Manuel Goepfert

Contact : metmap@orbifly.com




SOURCES & CREDITS :

   NOAA       Earth
Advisory